• Join FlightAware (Why Join?)
  • Login
  • US Flag 
04:25PM EDT


 

Airport Tracker/Info


-or-


 

Live Flight TrackerFlight Track Log ✈ UAL5840 ✈ 19-Apr-2013 ✈ KORD - KLEX

Flight Track Log - Related Links

Times and Time Zones

All times are in EDT time to prevent confusion due to time zone crossing. See the UAL5840 flight status page for this flight to view local times or setup timezone preferences in your user account.

Time Position Orientation Groundspeed Altitude Reporting Facility
EDT Latitude Longitude Course Direction KTS MPH feet Rate Location/Type
05:27PM 41.5862 -87.5544 156° South  Level Estimated
05:28PM 41.4871 -87.4671 159° South  Level Estimated
05:29PM 41.3880 -87.3799 173° South  Level Estimated
05:30PM 41.2889 -87.2931 90° East  Level Estimated
05:31PM 41.1896 -87.2065 169° South  Level Estimated
05:32PM 41.0903 -87.1202 169° South  Level Estimated
05:33PM 40.9964 -87.2164 218° Southwest  Level FlightAware Approximate
05:34PM 40.8992 -87.1263 173° South  Level Estimated
05:35PM 40.8019 -87.0364 163° South  Level Estimated
05:36PM 40.7046 -86.9467 164° South  Level Estimated
05:37PM 40.6072 -86.8574 161° South  Level Estimated
05:38PM 40.4944 -86.9059 198° South  Level FlightAware Approximate
05:39PM 40.3815 -86.9543 198° South  Level FlightAware Approximate
05:40PM 40.2687 -87.0025 198° South  Level FlightAware Approximate
05:41PM 40.1784 -86.9016 147° Southeast  Level Estimated
05:42PM 40.0683 -86.8437 158° South  Level FlightAware Approximate
05:43PM 39.9582 -86.7859 158° South  Level FlightAware Approximate
05:44PM 39.8480 -86.7283 158° South  Level FlightAware Approximate
05:45PM 39.7378 -86.6709 158° South  Level FlightAware Approximate
05:46PM 39.6276 -86.6137 158° South  Level FlightAware Approximate
05:47PM 39.5174 -86.5566 158° South  Level FlightAware Approximate
05:48PM 39.4071 -86.4998 158° South  Level FlightAware Approximate
05:49PM 39.2968 -86.4431 158° South  Level FlightAware Approximate
05:50PM 39.1865 -86.3866 158° South  Level FlightAware Approximate
05:51PM 39.1116 -86.2678 147° Southeast  Level Estimated
05:52PM 39.0367 -86.1493 148° Southeast  Level Estimated
05:53PM 38.9616 -86.0310 150° Southeast  Level Estimated
05:54PM 38.8864 -85.9130 149° Southeast  Level Estimated
05:55PM 38.7677 -85.9090 178° South  Level FlightAware Approximate
05:56PM 38.6992 -85.7848 147° Southeast  Level Estimated
05:57PM 38.5826 -85.7561 169° South  Level FlightAware Approximate
05:58PM 38.4661 -85.7275 169° South  Level FlightAware Approximate
05:59PM 38.4145 -85.5910 146° Southeast  Level Estimated
06:00PM 38.3628 -85.4547 96° East  Level Estimated
06:01PM 38.3110 -85.3186 95° East  Level Estimated
06:02PM 38.2115 -85.2362 147° Southeast  Level FlightAware Approximate
06:03PM 38.1722 -85.0937 96° East  Level Estimated
06:04PM 38.1052 -84.9691 124° Southeast  Level FlightAware Approximate
06:05PM 38.0775 -84.8224 90° East  Level Estimated
06:06PM 38.0496 -84.6759 90° East  Level Estimated
06:07PM 38.0368 -84.6086 90° East  Level Estimated
06:08PM 38.0368 -84.6086 90° East  Level Estimated
06:09PM 38.0368 -84.6086 90° East  Level Estimated
06:10PM 38.0368 -84.6086 90° East  Level Estimated
06:11PM 38.0368 -84.6086 90° East  Level Estimated
06:12PM 38.0368 -84.6086 90° East  Level Estimated
06:13PM 38.0368 -84.6086 90° East  Level Estimated
06:14PM 38.0368 -84.6086 90° East  Level Estimated
06:15PM 38.0368 -84.6086 90° East  Level Estimated
06:16PM 38.0368 -84.6086 90° East  Level Estimated